Time;durP1;ratioP1;P1;durP2;ratioP2;P2;SDS_P1;SDS_P2;PMS_P1;PMS_P2;Temp;Humidity;BMP_temperature;BMP_pressure;BME280_temperature;BME280_humidity;BME280_pressure;Samples;Min_cycle;Max_cycle;Signal;HPM_P1;HPM_P2
2023/08/16 00:00:39;;;;;;;10.43;5.88;;;15.00;99.90;;;;;;5066656;28;20078;-67
2023/08/16 00:03:05;;;;;;;11.98;7.07;;;15.00;99.90;;;;;;5059818;28;20044;-68
2023/08/16 00:05:32;;;;;;;15.32;8.82;;;15.00;99.90;;;;;;5070864;28;20027;-67
2023/08/16 00:07:57;;;;;;;19.05;11.02;;;15.00;99.90;;;;;;5061372;28;20020;-68
2023/08/16 00:10:23;;;;;;;14.43;7.63;;;15.00;99.90;;;;;;5065545;28;20098;-67
2023/08/16 00:12:48;;;;;;;10.02;6.40;;;15.00;99.90;;;;;;5066708;28;20119;-68
2023/08/16 00:15:14;;;;;;;13.13;7.55;;;14.90;99.90;;;;;;5056107;28;20366;-68
2023/08/16 00:17:39;;;;;;;16.63;9.15;;;15.00;99.90;;;;;;5070203;28;20021;-69
2023/08/16 00:20:08;;;;;;;17.15;9.57;;;14.90;99.90;;;;;;5058859;28;20376;-68
2023/08/16 00:22:33;;;;;;;16.08;9.90;;;15.00;99.90;;;;;;5063040;28;20029;-67
2023/08/16 00:24:59;;;;;;;19.42;9.90;;;15.00;99.90;;;;;;5067619;28;20027;-67
2023/08/16 00:27:24;;;;;;;12.43;7.68;;;15.00;99.90;;;;;;5056755;28;20025;-66
2023/08/16 00:29:50;;;;;;;12.40;6.75;;;15.00;99.90;;;;;;5068454;28;20017;-67
2023/08/16 00:32:15;;;;;;;11.52;6.57;;;15.10;99.90;;;;;;5060059;28;20039;-68
2023/08/16 00:34:41;;;;;;;13.75;6.70;;;15.10;99.90;;;;;;5061857;28;20467;-69
2023/08/16 00:37:06;;;;;;;13.13;6.65;;;15.00;99.90;;;;;;5068149;28;20455;-67
2023/08/16 00:39:32;;;;;;;11.75;6.75;;;15.00;99.90;;;;;;5055327;28;20369;-68
2023/08/16 00:41:58;;;;;;;13.93;7.47;;;15.00;99.90;;;;;;5067227;28;20048;-68
2023/08/16 00:44:24;;;;;;;12.30;7.47;;;14.90;99.90;;;;;;5061901;28;20020;-68
2023/08/16 00:46:49;;;;;;;14.48;7.82;;;14.90;99.90;;;;;;5060224;28;20041;-67
2023/08/16 00:49:15;;;;;;;13.82;7.75;;;14.80;99.90;;;;;;5069109;28;20024;-70
2023/08/16 00:51:41;;;;;;;11.38;6.50;;;14.80;99.90;;;;;;5056338;28;20017;-67
2023/08/16 00:54:07;;;;;;;12.70;7.25;;;14.80;99.90;;;;;;5066128;28;20020;-68
2023/08/16 00:56:34;;;;;;;9.45;5.97;;;14.70;99.90;;;;;;5063300;28;20107;-67
2023/08/16 00:59:00;;;;;;;9.65;5.75;;;14.70;99.90;;;;;;5059059;28;20037;-67
2023/08/16 01:01:26;;;;;;;10.45;6.70;;;14.70;99.90;;;;;;5069010;28;20031;-66
2023/08/16 01:03:52;;;;;;;13.70;7.63;;;14.70;99.90;;;;;;5057274;28;20032;-67
2023/08/16 01:06:17;;;;;;;13.90;8.43;;;14.60;99.90;;;;;;5064358;28;20033;-66
2023/08/16 01:08:43;;;;;;;16.10;8.50;;;14.70;99.90;;;;;;5064408;28;20036;-69
2023/08/16 01:11:43;;;;;;;13.07;8.82;;;14.70;99.90;;;;;;5056790;28;20036;-67
2023/08/16 01:14:42;;;;;;;12.63;7.43;;;14.70;99.90;;;;;;5046618;28;20148;-67
2023/08/16 01:17:09;;;;;;;11.82;7.20;;;14.80;99.90;;;;;;5057528;28;20464;-67
2023/08/16 01:19:36;;;;;;;16.85;8.48;;;14.70;99.90;;;;;;5068479;28;20491;-66
2023/08/16 01:22:27;;;;;;;15.60;8.15;;;14.70;99.90;;;;;;5058363;28;20137;-66
2023/08/16 01:24:59;;;;;;;11.80;6.90;;;14.70;99.90;;;;;;5059050;28;20032;-66
2023/08/16 01:27:26;;;;;;;16.00;6.97;;;14.70;99.90;;;;;;5068788;28;20035;-69
2023/08/16 01:29:53;;;;;;;12.18;7.03;;;14.70;99.90;;;;;;5057005;28;20457;-68
2023/08/16 01:32:21;;;;;;;12.45;7.07;;;14.70;99.90;;;;;;5063834;28;20039;-66
2023/08/16 01:34:47;;;;;;;12.90;6.55;;;14.70;99.90;;;;;;5064538;28;20066;-66
2023/08/16 01:37:12;;;;;;;12.65;7.63;;;14.70;99.90;;;;;;5056200;28;20033;-66
2023/08/16 01:39:38;;;;;;;15.65;8.40;;;14.60;99.90;;;;;;5068396;28;20385;-69
2023/08/16 01:42:06;;;;;;;14.45;7.32;;;14.60;99.90;;;;;;5058388;28;20511;-65
2023/08/16 01:44:34;;;;;;;13.88;7.25;;;14.60;99.90;;;;;;5061522;28;20079;-67
2023/08/16 01:47:00;;;;;;;17.63;8.93;;;14.60;99.90;;;;;;5065947;28;20434;-66
2023/08/16 01:49:26;;;;;;;16.85;8.70;;;14.60;99.90;;;;;;5055300;28;20532;-67
2023/08/16 01:51:52;;;;;;;15.88;9.18;;;14.60;99.90;;;;;;5067360;28;20056;-68
2023/08/16 01:54:18;;;;;;;15.70;8.75;;;14.70;99.90;;;;;;5060258;28;20052;-66
2023/08/16 01:56:43;;;;;;;16.35;9.13;;;14.70;99.90;;;;;;5059795;28;20029;-66
2023/08/16 01:59:09;;;;;;;12.65;8.10;;;14.70;99.90;;;;;;5067379;28;20039;-67
2023/08/16 02:01:34;;;;;;;14.25;8.35;;;14.70;99.90;;;;;;5055316;28;20025;-68
2023/08/16 02:04:00;;;;;;;13.48;6.95;;;14.70;99.90;;;;;;5066054;28;20025;-68
2023/08/16 02:06:29;;;;;;;15.43;7.28;;;14.70;99.90;;;;;;5061536;28;20029;-68
2023/08/16 02:08:55;;;;;;;10.35;6.25;;;14.70;99.90;;;;;;5058451;28;20094;-65
2023/08/16 02:11:20;;;;;;;14.52;7.53;;;14.60;99.90;;;;;;5068473;28;20423;-66
2023/08/16 02:13:46;;;;;;;15.52;8.32;;;14.60;99.90;;;;;;5051443;28;20423;-68
2023/08/16 02:16:12;;;;;;;20.30;10.57;;;14.60;99.90;;;;;;5051006;28;20080;-66
2023/08/16 02:18:38;;;;;;;20.38;10.82;;;14.60;99.90;;;;;;5052230;28;20057;-66
2023/08/16 02:21:03;;;;;;;20.70;13.00;;;14.60;99.90;;;;;;5056124;28;20469;-66
2023/08/16 02:23:29;;;;;;;18.75;11.75;;;14.60;99.90;;;;;;5054280;28;20098;-67
2023/08/16 02:25:55;;;;;;;20.23;11.23;;;14.60;99.90;;;;;;5055809;28;20473;-66
2023/08/16 02:28:20;;;;;;;17.98;10.45;;;14.60;99.90;;;;;;5054883;28;20028;-70
2023/08/16 02:30:46;;;;;;;15.88;10.18;;;14.60;99.90;;;;;;5055442;28;20100;-66
2023/08/16 02:33:12;;;;;;;17.67;8.80;;;14.60;99.90;;;;;;5055273;28;20033;-66
2023/08/16 02:35:37;;;;;;;20.00;10.88;;;14.60;99.90;;;;;;5052640;28;20050;-66
2023/08/16 02:38:03;;;;;;;16.48;9.82;;;14.60;99.90;;;;;;5055238;28;20022;-65
2023/08/16 02:40:28;;;;;;;20.40;10.70;;;14.60;99.90;;;;;;5054468;28;20465;-67
2023/08/16 02:42:54;;;;;;;20.30;11.88;;;14.60;99.90;;;;;;5054771;28;20041;-67
2023/08/16 02:45:20;;;;;;;22.02;11.45;;;14.70;99.90;;;;;;5055341;28;20052;-67
2023/08/16 02:47:46;;;;;;;22.67;11.52;;;14.70;99.90;;;;;;5055943;28;20047;-65
2023/08/16 02:50:11;;;;;;;24.75;15.45;;;14.70;99.90;;;;;;5055336;28;20033;-66
2023/08/16 02:52:37;;;;;;;28.20;17.77;;;14.70;99.90;;;;;;5055838;28;20036;-68
2023/08/16 02:55:04;;;;;;;32.33;18.92;;;14.70;99.90;;;;;;5055257;28;20036;-66
2023/08/16 02:57:29;;;;;;;29.35;18.85;;;14.70;99.90;;;;;;5054935;28;20017;-67
2023/08/16 02:59:55;;;;;;;33.92;20.63;;;14.70;99.90;;;;;;5055378;28;20500;-65
2023/08/16 03:02:20;;;;;;;31.42;19.63;;;14.80;99.90;;;;;;5055025;28;20077;-65
2023/08/16 03:04:46;;;;;;;35.70;20.63;;;14.80;99.90;;;;;;5055140;28;20070;-64
2023/08/16 03:07:12;;;;;;;43.90;26.65;;;14.80;99.90;;;;;;5054957;28;20032;-67
2023/08/16 03:09:38;;;;;;;27.27;16.88;;;14.80;99.90;;;;;;5055338;28;20033;-67
2023/08/16 03:12:05;;;;;;;23.20;13.38;;;14.70;99.90;;;;;;5054624;28;20035;-66
2023/08/16 03:14:30;;;;;;;20.42;12.18;;;14.80;99.90;;;;;;5054542;28;20029;-68
2023/08/16 03:16:57;;;;;;;20.13;13.13;;;14.70;99.90;;;;;;5054948;28;20120;-66
2023/08/16 03:19:22;;;;;;;22.10;13.70;;;14.70;99.90;;;;;;5054965;28;20057;-65
2023/08/16 03:21:48;;;;;;;23.95;13.75;;;14.60;99.90;;;;;;5054677;28;20511;-65
2023/08/16 03:24:14;;;;;;;22.00;12.13;;;14.60;99.90;;;;;;5054896;28;20449;-64
2023/08/16 03:26:39;;;;;;;22.80;13.40;;;14.60;99.90;;;;;;5054538;28;20025;-65
2023/08/16 03:29:05;;;;;;;23.25;14.05;;;14.50;99.90;;;;;;5054399;28;20037;-66
2023/08/16 03:31:30;;;;;;;23.25;13.68;;;14.50;99.90;;;;;;5053470;28;20025;-65
2023/08/16 03:33:56;;;;;;;26.73;15.65;;;14.50;99.90;;;;;;5054676;28;20032;-67
2023/08/16 03:36:22;;;;;;;26.13;14.95;;;14.50;99.90;;;;;;5054352;28;20033;-67
2023/08/16 03:38:47;;;;;;;24.00;13.90;;;14.50;99.90;;;;;;5054491;28;20032;-66
2023/08/16 03:41:13;;;;;;;22.85;14.45;;;14.50;99.90;;;;;;5054121;28;20037;-65
2023/08/16 03:43:38;;;;;;;21.73;13.32;;;14.40;99.90;;;;;;5053940;28;20041;-66
2023/08/16 03:46:05;;;;;;;19.27;11.15;;;14.40;99.90;;;;;;5054184;28;20053;-67
2023/08/16 03:48:30;;;;;;;17.88;10.68;;;14.40;99.90;;;;;;5054187;28;20473;-66
2023/08/16 03:50:56;;;;;;;17.83;10.75;;;14.30;99.90;;;;;;5054288;28;20047;-67
2023/08/16 03:53:22;;;;;;;18.27;9.75;;;14.30;99.90;;;;;;5054238;28;20373;-67
2023/08/16 03:55:47;;;;;;;15.23;9.07;;;14.30;99.90;;;;;;5053819;28;20031;-66
2023/08/16 03:58:13;;;;;;;17.10;9.75;;;14.30;99.90;;;;;;5053847;28;20024;-67
2023/08/16 04:00:40;;;;;;;20.23;11.07;;;14.20;99.90;;;;;;5054218;28;20071;-65
2023/08/16 04:03:06;;;;;;;18.63;11.48;;;14.20;99.90;;;;;;5054289;28;20040;-65
2023/08/16 04:05:33;;;;;;;24.98;14.85;;;14.20;99.90;;;;;;5054295;28;20048;-65
2023/08/16 04:07:58;;;;;;;22.60;13.32;;;14.20;99.90;;;;;;5054019;28;20389;-64
2023/08/16 04:10:24;;;;;;;21.55;13.77;;;14.20;99.90;;;;;;5053626;28;20036;-64
2023/08/16 04:12:50;;;;;;;24.95;15.50;;;14.20;99.90;;;;;;5054282;28;20032;-66
2023/08/16 04:15:15;;;;;;;21.35;13.27;;;14.20;99.90;;;;;;5054184;28;20035;-65
2023/08/16 04:17:41;;;;;;;22.75;13.75;;;14.10;99.90;;;;;;5053945;28;20480;-65
2023/08/16 04:20:07;;;;;;;21.67;13.00;;;14.20;99.90;;;;;;5053935;28;20163;-65
2023/08/16 04:22:34;;;;;;;21.67;12.45;;;14.20;99.90;;;;;;5053720;28;20029;-66
2023/08/16 04:25:00;;;;;;;22.17;13.00;;;14.20;99.90;;;;;;5053680;28;20070;-65
2023/08/16 04:27:26;;;;;;;23.23;14.35;;;14.20;99.90;;;;;;5053994;28;20128;-65
2023/08/16 04:29:51;;;;;;;22.25;13.18;;;14.10;99.90;;;;;;5053691;28;20782;-65
2023/08/16 04:32:17;;;;;;;22.08;12.43;;;14.10;99.90;;;;;;5053512;28;20052;-67
2023/08/16 04:34:42;;;;;;;20.02;12.43;;;14.10;99.90;;;;;;5053981;28;20025;-64
2023/08/16 04:37:08;;;;;;;19.70;13.15;;;14.10;99.90;;;;;;5053872;28;20035;-65
2023/08/16 04:39:34;;;;;;;23.55;14.25;;;14.10;99.90;;;;;;5053302;28;20096;-64
2023/08/16 04:41:59;;;;;;;22.67;13.90;;;14.10;99.90;;;;;;5053120;28;20043;-64
2023/08/16 04:44:25;;;;;;;21.33;13.38;;;14.20;99.90;;;;;;5053259;28;20491;-65
2023/08/16 04:46:50;;;;;;;22.55;14.00;;;14.20;99.90;;;;;;5051778;28;20127;-66
2023/08/16 04:49:16;;;;;;;26.23;15.90;;;14.20;99.90;;;;;;5053405;28;20033;-64
2023/08/16 04:51:42;;;;;;;25.90;15.93;;;14.20;99.90;;;;;;5053475;28;20040;-64
2023/08/16 04:54:07;;;;;;;24.95;15.20;;;14.30;99.90;;;;;;5053100;28;20032;-65
2023/08/16 04:56:33;;;;;;;21.90;14.80;;;14.40;99.90;;;;;;5053031;28;20029;-65
2023/08/16 04:58:58;;;;;;;23.73;15.52;;;14.40;99.90;;;;;;5052949;28;20025;-65
2023/08/16 05:01:24;;;;;;;22.90;13.93;;;14.50;99.90;;;;;;5053419;28;20037;-67
2023/08/16 05:03:50;;;;;;;20.52;13.38;;;14.60;99.90;;;;;;5051834;28;20036;-66
2023/08/16 05:06:16;;;;;;;18.88;11.43;;;14.60;99.90;;;;;;5053124;28;20384;-64
2023/08/16 05:08:42;;;;;;;20.00;10.77;;;14.60;99.90;;;;;;5052656;28;20028;-67
2023/08/16 05:11:07;;;;;;;20.98;11.90;;;14.70;99.90;;;;;;5053013;28;20029;-66
2023/08/16 05:13:33;;;;;;;18.80;11.45;;;14.70;99.90;;;;;;5052943;28;20067;-64
2023/08/16 05:15:58;;;;;;;23.20;15.35;;;14.80;99.90;;;;;;5053299;28;20102;-66
2023/08/16 05:18:24;;;;;;;22.85;14.45;;;14.80;99.90;;;;;;5051956;28;20025;-65
2023/08/16 05:20:49;;;;;;;19.80;11.00;;;14.90;99.90;;;;;;5052842;28;20025;-65
2023/08/16 05:23:15;;;;;;;19.27;11.35;;;14.90;99.90;;;;;;5052682;28;20366;-65
2023/08/16 05:25:41;;;;;;;19.90;11.88;;;15.00;99.90;;;;;;5052998;28;20048;-65
2023/08/16 05:28:07;;;;;;;20.23;12.07;;;15.10;99.90;;;;;;5052607;28;20029;-65
2023/08/16 05:30:33;;;;;;;21.20;12.68;;;15.10;99.90;;;;;;5052913;28;20031;-66
2023/08/16 05:32:59;;;;;;;23.15;13.05;;;15.10;99.90;;;;;;5052957;28;20024;-64
2023/08/16 05:35:24;;;;;;;22.02;12.85;;;15.20;99.90;;;;;;5052579;28;20032;-64
2023/08/16 05:37:54;;;;;;;19.77;12.95;;;15.30;99.90;;;;;;5051416;28;20013;-65
2023/08/16 05:40:20;;;;;;;20.25;12.68;;;15.30;99.90;;;;;;5052535;28;20090;-65
2023/08/16 05:42:45;;;;;;;21.30;11.95;;;15.40;99.90;;;;;;5052418;28;20389;-64
2023/08/16 05:45:11;;;;;;;20.85;12.70;;;15.40;99.90;;;;;;5052493;28;20029;-64
2023/08/16 05:47:37;;;;;;;21.88;14.38;;;15.60;99.90;;;;;;5052786;28;20045;-65
2023/08/16 05:50:03;;;;;;;21.35;14.02;;;15.70;99.90;;;;;;5052229;28;20104;-66
2023/08/16 05:52:28;;;;;;;21.25;12.77;;;15.80;99.90;;;;;;5051622;28;20062;-65
2023/08/16 05:54:54;;;;;;;23.75;13.80;;;16.00;99.90;;;;;;5052123;28;20456;-65
2023/08/16 05:57:19;;;;;;;24.20;16.52;;;16.20;99.90;;;;;;5052529;28;20029;-65
2023/08/16 05:59:45;;;;;;;28.48;19.52;;;16.40;99.90;;;;;;5051945;28;20083;-65
2023/08/16 06:02:10;;;;;;;24.48;17.73;;;16.60;99.90;;;;;;5052029;28;20037;-65
2023/08/16 06:04:36;;;;;;;28.85;19.88;;;16.90;99.90;;;;;;5052303;28;20059;-66
2023/08/16 06:07:02;;;;;;;29.25;18.77;;;17.10;99.90;;;;;;5051812;28;20029;-63
2023/08/16 06:09:28;;;;;;;27.10;19.73;;;17.20;99.90;;;;;;5051784;28;20033;-65
2023/08/16 06:11:54;;;;;;;28.50;19.98;;;17.50;99.90;;;;;;5051753;28;20433;-66
2023/08/16 06:14:19;;;;;;;26.85;17.40;;;17.70;99.90;;;;;;5051676;28;20025;-66
2023/08/16 06:16:45;;;;;;;25.73;18.80;;;17.90;99.90;;;;;;5052009;28;20032;-65
2023/08/16 06:19:13;;;;;;;26.95;18.02;;;18.20;99.90;;;;;;5051966;28;20025;-66
2023/08/16 06:21:39;;;;;;;26.85;18.40;;;18.40;99.90;;;;;;5051557;28;20036;-66
2023/08/16 06:24:06;;;;;;;27.60;18.58;;;18.70;99.90;;;;;;5051797;28;20053;-68
2023/08/16 06:26:31;;;;;;;24.73;16.70;;;19.00;99.90;;;;;;5051805;28;20115;-65
2023/08/16 06:28:58;;;;;;;23.85;15.55;;;19.20;99.90;;;;;;5052199;28;20451;-65
2023/08/16 06:31:23;;;;;;;22.95;14.15;;;19.50;99.90;;;;;;5052296;28;20021;-65
2023/08/16 06:33:49;;;;;;;22.67;13.80;;;19.70;99.90;;;;;;5052018;28;20107;-65
2023/08/16 06:36:14;;;;;;;21.08;12.65;;;20.00;99.90;;;;;;5050643;28;20021;-66
2023/08/16 06:38:40;;;;;;;23.40;13.63;;;20.60;99.90;;;;;;5052011;28;20051;-63
2023/08/16 06:41:06;;;;;;;21.83;12.70;;;21.10;99.90;;;;;;5052008;28;20034;-65
2023/08/16 06:43:32;;;;;;;21.60;12.27;;;21.50;99.90;;;;;;5052045;28;20040;-65
2023/08/16 06:45:57;;;;;;;18.73;9.20;;;21.90;99.90;;;;;;5051669;28;20103;-65
2023/08/16 06:48:23;;;;;;;20.02;10.00;;;22.30;99.90;;;;;;5050537;28;20060;-66
2023/08/16 06:50:49;;;;;;;17.15;9.13;;;23.20;99.90;;;;;;5051654;28;20383;-64
2023/08/16 06:53:14;;;;;;;19.25;9.35;;;24.40;99.90;;;;;;5051701;28;20029;-64
2023/08/16 06:55:40;;;;;;;13.70;6.20;;;25.60;99.90;;;;;;5052015;28;20025;-66
2023/08/16 06:58:06;;;;;;;14.57;6.25;;;26.80;99.90;;;;;;5049509;28;20021;-64
2023/08/16 07:00:32;;;;;;;13.10;6.40;;;27.90;99.90;;;;;;5051734;28;20036;-64
2023/08/16 07:02:58;;;;;;;10.02;5.88;;;28.90;99.90;;;;;;5051399;28;20072;-64
2023/08/16 07:05:26;;;;;;;12.50;5.10;;;29.40;99.90;;;;;;5053616;28;20064;-65
2023/08/16 07:07:52;;;;;;;12.15;5.22;;;29.20;99.20;;;;;;5054991;28;20442;-65
2023/08/16 07:10:18;;;;;;;10.38;5.53;;;28.80;99.30;;;;;;5055418;28;20052;-64
2023/08/16 07:12:44;;;;;;;10.23;5.72;;;28.60;99.10;;;;;;5055279;28;20405;-65
2023/08/16 07:15:13;;;;;;;10.40;6.13;;;28.60;99.30;;;;;;5055350;28;20036;-64
2023/08/16 07:17:39;;;;;;;12.77;6.35;;;28.40;99.00;;;;;;5055352;28;20104;-65
2023/08/16 07:20:08;;;;;;;11.70;6.20;;;28.30;99.00;;;;;;5054820;28;20151;-64
2023/08/16 07:22:37;;;;;;;12.48;6.05;;;28.00;99.00;;;;;;5055211;28;20127;-65
2023/08/16 07:25:04;;;;;;;13.32;6.53;;;27.60;99.60;;;;;;5055321;28;20090;-66
2023/08/16 07:27:29;;;;;;;16.40;7.90;;;27.40;99.80;;;;;;5055134;28;20079;-64
2023/08/16 07:29:55;;;;;;;13.68;7.55;;;27.10;99.90;;;;;;5054495;28;20452;-65
2023/08/16 07:32:20;;;;;;;16.42;7.75;;;26.70;99.90;;;;;;5052851;28;20028;-65
2023/08/16 07:34:46;;;;;;;13.45;7.30;;;26.30;99.90;;;;;;5052221;28;20033;-64
2023/08/16 07:37:13;;;;;;;13.93;7.45;;;25.90;99.90;;;;;;5055004;28;20481;-66
2023/08/16 07:39:39;;;;;;;19.10;8.57;;;25.50;99.90;;;;;;5053616;28;20041;-65
2023/08/16 07:42:06;;;;;;;17.05;8.60;;;25.10;99.90;;;;;;5054841;28;20039;-65
2023/08/16 07:44:32;;;;;;;18.38;8.15;;;24.90;99.90;;;;;;5054481;28;20021;-65
2023/08/16 07:47:04;;;;;;;19.83;9.65;;;24.90;99.90;;;;;;5053065;28;20059;-65
2023/08/16 07:49:30;;;;;;;15.52;9.80;;;25.00;99.90;;;;;;5053628;28;20025;-64
2023/08/16 07:51:56;;;;;;;20.38;11.07;;;25.20;99.90;;;;;;5053428;28;20025;-64
2023/08/16 07:54:23;;;;;;;23.50;15.90;;;25.50;99.90;;;;;;5053051;28;20120;-66
2023/08/16 07:56:50;;;;;;;25.00;15.32;;;25.90;99.90;;;;;;5051386;28;20719;-66
2023/08/16 07:59:16;;;;;;;23.05;15.60;;;26.30;99.90;;;;;;5051528;28;20067;-65
2023/08/16 08:01:43;;;;;;;22.45;13.60;;;26.70;99.90;;;;;;5051878;28;20024;-66
2023/08/16 08:04:09;;;;;;;24.88;12.75;;;27.10;99.90;;;;;;5052557;28;20499;-65
2023/08/16 08:06:39;;;;;;;19.42;10.77;;;27.50;99.90;;;;;;5048139;28;20025;-65
2023/08/16 08:09:04;;;;;;;20.20;9.43;;;28.10;99.40;;;;;;5052661;28;20028;-67
2023/08/16 08:11:30;;;;;;;13.32;6.05;;;28.80;98.30;;;;;;5053956;28;20076;-67
2023/08/16 08:13:57;;;;;;;10.77;4.85;;;29.70;97.20;;;;;;5052784;28;20025;-66
2023/08/16 08:16:23;;;;;;;9.10;4.30;;;30.70;95.90;;;;;;5053134;28;20033;-65
2023/08/16 08:18:49;;;;;;;15.93;4.75;;;31.50;94.30;;;;;;5054031;28;20040;-65
2023/08/16 08:21:14;;;;;;;9.68;3.97;;;32.20;93.60;;;;;;5054247;28;20108;-66
2023/08/16 08:23:40;;;;;;;13.13;5.72;;;33.00;92.50;;;;;;5053881;28;20032;-67
2023/08/16 08:26:06;;;;;;;5.93;3.50;;;33.70;91.40;;;;;;5053811;28;20029;-66
2023/08/16 08:28:32;;;;;;;6.35;3.00;;;34.30;91.10;;;;;;5053619;28;20056;-64
2023/08/16 08:31:01;;;;;;;7.57;2.97;;;34.80;90.10;;;;;;5053587;28;20388;-66
2023/08/16 08:33:27;;;;;;;4.22;2.38;;;35.40;88.70;;;;;;5053671;28;20022;-66
2023/08/16 08:35:52;;;;;;;4.45;2.53;;;35.70;86.00;;;;;;5053357;28;20082;-65
2023/08/16 08:38:18;;;;;;;6.15;2.17;;;35.90;85.60;;;;;;5052947;28;20076;-67
2023/08/16 08:40:44;;;;;;;4.88;1.95;;;36.00;85.20;;;;;;5053641;28;20032;-68
2023/08/16 08:43:15;;;;;;;7.70;1.58;;;36.40;83.90;;;;;;5053411;28;20032;-66
2023/08/16 08:45:42;;;;;;;3.40;1.67;;;36.60;83.10;;;;;;5053554;28;20056;-65
2023/08/16 08:48:08;;;;;;;5.30;1.60;;;36.90;82.70;;;;;;5053555;28;20037;-66
2023/08/16 08:50:37;;;;;;;2.95;1.35;;;37.10;80.80;;;;;;5053573;28;20029;-65
2023/08/16 08:53:03;;;;;;;1.95;1.05;;;37.00;81.20;;;;;;5053517;28;20037;-68
2023/08/16 08:55:32;;;;;;;3.35;1.40;;;36.80;80.60;;;;;;5053587;28;20032;-65
2023/08/16 08:58:01;;;;;;;8.30;2.22;;;36.80;81.10;;;;;;5052481;28;20025;-66
2023/08/16 09:00:29;;;;;;;7.93;1.77;;;36.80;81.20;;;;;;5053214;28;20017;-65
2023/08/16 09:02:56;;;;;;;6.72;2.25;;;36.80;81.00;;;;;;5051805;28;20067;-65
2023/08/16 09:05:22;;;;;;;6.55;1.30;;;37.00;80.80;;;;;;5053021;28;20029;-66
2023/08/16 09:07:48;;;;;;;4.85;1.30;;;37.10;80.20;;;;;;5053064;28;20025;-65
2023/08/16 09:10:15;;;;;;;5.03;1.30;;;37.10;79.70;;;;;;5052998;28;20473;-66
2023/08/16 09:12:42;;;;;;;2.20;1.02;;;36.90;79.40;;;;;;5034601;28;20032;-65
2023/08/16 09:15:09;;;;;;;4.00;1.42;;;36.70;79.10;;;;;;5052942;28;20108;-68
2023/08/16 09:17:35;;;;;;;5.20;1.63;;;36.40;79.20;;;;;;5051574;28;20548;-64
2023/08/16 09:20:00;;;;;;;1.55;1.15;;;36.20;79.70;;;;;;5052731;28;20072;-65
2023/08/16 09:22:28;;;;;;;4.45;1.30;;;36.30;78.80;;;;;;5052789;28;20072;-65
2023/08/16 09:24:56;;;;;;;3.88;1.15;;;36.40;79.00;;;;;;5052625;28;20021;-65
2023/08/16 09:27:22;;;;;;;3.90;1.15;;;36.50;78.90;;;;;;5052018;28;20044;-67
2023/08/16 09:29:48;;;;;;;6.10;1.80;;;36.40;79.00;;;;;;5052062;28;20036;-68
2023/08/16 09:32:14;;;;;;;8.68;1.67;;;36.50;79.20;;;;;;5052298;28;20029;-66
2023/08/16 09:34:39;;;;;;;2.83;1.10;;;36.90;79.60;;;;;;5052411;28;20036;-68
2023/08/16 09:37:05;;;;;;;3.55;1.10;;;37.60;77.90;;;;;;5052501;28;20035;-68
2023/08/16 09:39:30;;;;;;;4.10;1.30;;;38.00;76.40;;;;;;5051036;28;20037;-66
2023/08/16 09:41:57;;;;;;;3.97;1.10;;;38.00;75.40;;;;;;5051938;28;20452;-66
2023/08/16 09:44:28;;;;;;;3.67;1.10;;;37.80;75.00;;;;;;5052488;28;20090;-66
2023/08/16 09:46:55;;;;;;;4.03;1.00;;;37.60;75.20;;;;;;5052504;28;20080;-67
2023/08/16 09:49:25;;;;;;;4.68;1.48;;;37.50;74.60;;;;;;5052217;28;20032;-68
2023/08/16 09:51:51;;;;;;;4.85;1.35;;;37.60;74.60;;;;;;5051468;28;20044;-67
2023/08/16 09:54:19;;;;;;;2.65;0.93;;;37.80;74.60;;;;;;5069597;28;20663;-69
2023/08/16 09:56:47;;;;;;;2.65;1.13;;;38.20;73.70;;;;;;5052263;28;20033;-65
2023/08/16 09:59:13;;;;;;;4.45;1.83;;;38.70;73.70;;;;;;5058619;28;20461;-66
2023/08/16 10:01:41;;;;;;;2.33;0.90;;;39.30;73.70;;;;;;5071558;28;20033;-66
2023/08/16 10:04:07;;;;;;;4.22;1.33;;;39.50;71.70;;;;;;5072125;28;20421;-66
2023/08/16 10:06:33;;;;;;;4.35;1.20;;;39.30;72.10;;;;;;5072170;28;20052;-68
2023/08/16 10:09:02;;;;;;;1.92;1.05;;;39.10;72.30;;;;;;5052705;28;20017;-66
2023/08/16 10:11:28;;;;;;;3.15;1.08;;;38.80;71.90;;;;;;5052343;28;20035;-66
2023/08/16 10:13:54;;;;;;;3.17;0.90;;;38.70;71.80;;;;;;5050980;28;20426;-66
2023/08/16 10:16:22;;;;;;;1.35;0.80;;;38.40;71.90;;;;;;5051083;28;20025;-70
2023/08/16 10:18:52;;;;;;;4.38;1.20;;;38.30;71.90;;;;;;5051009;28;20025;-70
2023/08/16 10:21:18;;;;;;;2.45;1.17;;;38.40;72.10;;;;;;5050863;28;20034;-68
2023/08/16 10:23:44;;;;;;;1.42;1.05;;;38.80;71.80;;;;;;5050930;28;20056;-68
2023/08/16 10:26:13;;;;;;;3.05;0.98;;;39.10;71.10;;;;;;5051821;28;20066;-68
2023/08/16 10:28:44;;;;;;;3.97;1.10;;;39.20;71.00;;;;;;5051022;28;20027;-67
2023/08/16 10:31:11;;;;;;;5.32;1.33;;;39.20;70.50;;;;;;5050807;28;20065;-66
2023/08/16 10:33:44;;;;;;;3.83;1.10;;;39.20;70.10;;;;;;5050726;28;20032;-70
2023/08/16 10:36:11;;;;;;;2.63;1.38;;;39.20;70.30;;;;;;5049176;28;20028;-69
2023/08/16 10:38:37;;;;;;;3.92;1.30;;;39.50;69.80;;;;;;5050898;28;20330;-67
2023/08/16 10:41:09;;;;;;;3.83;1.58;;;39.80;69.60;;;;;;5054206;28;20025;-67
2023/08/16 10:43:35;;;;;;;3.95;1.25;;;40.00;69.30;;;;;;5054296;28;20039;-67
2023/08/16 10:46:01;;;;;;;2.63;1.23;;;39.90;69.10;;;;;;5054383;28;20123;-67
2023/08/16 10:48:33;;;;;;;4.35;1.20;;;39.60;69.10;;;;;;5054357;28;20056;-67
2023/08/16 10:51:03;;;;;;;4.82;1.45;;;39.30;69.80;;;;;;5053421;28;20027;-67
2023/08/16 10:53:28;;;;;;;3.63;1.60;;;39.20;70.20;;;;;;5054246;28;20029;-67
2023/08/16 10:55:55;;;;;;;6.05;1.63;;;39.20;69.70;;;;;;5054692;28;20075;-70
2023/08/16 10:58:28;;;;;;;3.30;1.40;;;39.30;69.40;;;;;;5054747;28;20031;-67
2023/08/16 11:00:58;;;;;;;4.00;1.50;;;39.50;69.70;;;;;;5053791;28;20032;-68
2023/08/16 11:03:31;;;;;;;3.47;1.42;;;39.70;69.40;;;;;;5055191;28;20083;-68
2023/08/16 11:06:00;;;;;;;5.35;2.00;;;40.00;68.90;;;;;;5055335;28;20033;-68
2023/08/16 11:08:30;;;;;;;3.38;1.58;;;40.30;68.50;;;;;;5055024;28;20029;-68
2023/08/16 11:10:56;;;;;;;3.38;1.60;;;40.10;68.80;;;;;;5055384;28;20025;-69
2023/08/16 11:13:22;;;;;;;3.00;1.48;;;40.00;68.90;;;;;;5055281;28;20070;-67
2023/08/16 11:15:47;;;;;;;5.80;1.65;;;40.10;68.80;;;;;;5055645;28;20029;-68
2023/08/16 11:18:13;;;;;;;5.28;1.48;;;40.20;68.20;;;;;;5055362;28;20033;-67
2023/08/16 11:20:41;;;;;;;5.80;1.90;;;40.40;68.20;;;;;;5054896;28;20039;-68
2023/08/16 11:23:06;;;;;;;3.55;2.17;;;40.30;68.10;;;;;;5053286;28;20552;-68
2023/08/16 11:25:36;;;;;;;4.22;1.50;;;40.20;67.30;;;;;;5055349;28;20064;-71
2023/08/16 11:28:03;;;;;;;5.60;1.60;;;40.10;67.70;;;;;;5054844;28;20021;-67
2023/08/16 11:30:32;;;;;;;3.47;1.35;;;40.20;67.70;;;;;;5055368;28;20039;-70
2023/08/16 11:32:58;;;;;;;1.95;1.00;;;40.30;67.80;;;;;;5055197;28;20025;-67
2023/08/16 11:35:24;;;;;;;3.25;1.20;;;40.00;67.00;;;;;;5054644;28;20032;-68
2023/08/16 11:37:50;;;;;;;3.53;1.27;;;39.80;67.90;;;;;;5055458;28;20556;-71
2023/08/16 11:40:21;;;;;;;2.33;1.20;;;39.50;68.30;;;;;;5055400;28;20111;-67
2023/08/16 11:42:50;;;;;;;3.53;1.40;;;39.20;68.60;;;;;;5055343;28;20110;-67
2023/08/16 11:45:18;;;;;;;2.80;1.17;;;38.90;68.70;;;;;;5054128;28;20147;-68
2023/08/16 11:47:44;;;;;;;2.72;1.40;;;38.70;69.10;;;;;;5035078;28;20034;-68
2023/08/16 11:50:10;;;;;;;4.93;1.13;;;38.70;68.70;;;;;;5034764;28;20378;-67
2023/08/16 11:52:35;;;;;;;3.13;1.13;;;38.60;69.00;;;;;;5031395;28;20029;-71
2023/08/16 11:55:04;;;;;;;3.72;1.40;;;38.40;68.80;;;;;;5034633;28;20347;-71
2023/08/16 11:57:42;;;;;;;4.90;1.30;;;38.30;69.00;;;;;;5034514;28;20026;-69
2023/08/16 12:00:08;;;;;;;4.35;1.42;;;38.20;68.90;;;;;;5034389;28;20091;-69
2023/08/16 12:02:36;;;;;;;4.75;1.52;;;38.30;69.00;;;;;;5033581;28;20419;-68
2023/08/16 12:05:09;;;;;;;2.38;1.35;;;38.60;68.90;;;;;;5034335;28;20124;-69
2023/08/16 12:07:47;;;;;;;1.85;1.17;;;38.80;68.10;;;;;;5032500;28;20040;-68
2023/08/16 12:10:29;;;;;;;5.47;1.60;;;38.90;68.00;;;;;;5033633;28;21087;-69
2023/08/16 12:12:56;;;;;;;3.75;1.20;;;38.90;68.70;;;;;;5033438;28;20025;-69
2023/08/16 12:15:23;;;;;;;2.42;1.25;;;38.90;68.40;;;;;;5034147;28;20036;-69
2023/08/16 12:17:50;;;;;;;3.78;1.50;;;38.90;68.50;;;;;;5031065;28;20032;-68
2023/08/16 12:20:15;;;;;;;4.60;1.90;;;38.70;68.90;;;;;;5033522;28;20120;-70
2023/08/16 12:22:41;;;;;;;2.72;1.30;;;38.60;68.70;;;;;;5033391;28;20133;-69
2023/08/16 12:25:07;;;;;;;4.18;1.63;;;38.40;68.80;;;;;;5033661;28;20461;-72
2023/08/16 12:27:33;;;;;;;3.78;1.48;;;38.20;69.00;;;;;;5032282;28;20500;-68
2023/08/16 12:29:58;;;;;;;3.03;1.23;;;37.70;69.30;;;;;;5033267;28;20029;-69
2023/08/16 12:32:24;;;;;;;5.65;1.27;;;37.30;69.70;;;;;;5033315;28;20045;-67